EW1522 Weather Reports


Display with metric or nautical units.
time (UTC)temp
F
wind
direction
speed
MPH
gust
MPH
rain 1hr
in
rain 24hr
in
rain mn
in
humidity
%
barometer
mb
20190325093138 26 121 0.0 2.0 0.00 0.07 0.00 94 1023.7
20190325091510 25 118 0.0 0.0 0.00 0.07 0.00 92 1023.7
20190325090113 27 118 0.0 1.0 0.00 0.07 0.00 93 1023.7
20190325084500 27 220 0.0 2.0 0.00 0.07 0.00 94 1023.8
20190325083120 27 130 0.0 1.0 0.00 0.07 0.00 94 1023.9
20190325081512 27 142 0.0 2.0 0.00 0.07 0.00 94 1023.9
20190325080116 28 115 0.0 1.0 0.00 0.07 0.00 94 1024.1
20190325074511 28 138 0.0 1.0 0.00 0.07 0.00 95 1024.0
20190325073239 28 129 0.0 0.0 0.00 0.07 0.00 94 1024.0
20190325071510 28 124 0.0 1.0 0.00 0.07 0.00 94 1023.8
20190325070152 28 124 0.0 2.0 0.00 0.07 0.00 94 1023.7
20190325064530 29 120 0.0 1.0 0.00 0.07 0.00 94 1023.6
20190325063019 29 120 0.0 1.0 0.00 0.07 0.00 94 1023.5
20190325061628 29 219 0.0 1.0 0.00 0.07 0.00 94 1023.4
20190325060114 28 140 0.0 1.0 0.00 0.07 0.00 94 1023.1
20190325054504 29 146 0.0 1.0 0.00 0.07 0.07 94 1023.1
20190325053120 30 124 0.0 1.0 0.00 0.07 0.07 94 1022.9
20190325051554 29 163 0.0 2.0 0.00 0.07 0.07 94 1022.7
20190325050005 30 203 0.0 2.0 0.00 0.07 0.07 93 1022.6
20190325044550 32 149 0.0 7.0 0.00 0.07 0.07 94 1022.5
20190325043014 31 239 0.0 1.0 0.00 0.07 0.07 93 1022.7
20190325041606 32 142 0.0 5.0 0.00 0.07 0.07 93 1022.4
20190325040005 32 211 1.0 6.0 0.00 0.07 0.07 94 1022.5
20190325034620 32 167 1.0 5.0 0.00 0.07 0.07 93 1022.5
20190325033021 33 229 0.0 2.0 0.00 0.07 0.07 93 1022.2
20190325031626 34 40 0.0 3.0 0.00 0.07 0.07 92 1021.9
20190325030046 34 148 5.0 9.0 0.00 0.07 0.07 93 1021.6
20190325024552 34 130 2.0 8.0 0.00 0.07 0.07 94 1021.7
20190325023023 33 266 0.0 1.0 0.00 0.07 0.07 93 1021.2
20190325021558 34 251 0.0 5.0 0.00 0.07 0.07 93 1020.8
20190325020015 34 142 2.0 5.0 0.00 0.07 0.07 93 1020.8
20190325014634 34 141 3.0 5.0 0.00 0.07 0.07 92 1020.8
20190325013012 35 117 0.0 1.0 0.00 0.07 0.07 92 1020.7
20190325011626 37 136 1.0 2.0 0.00 0.07 0.07 91 1020.7
20190325010033 38 346 0.0 2.0 0.00 0.07 0.07 91 1020.7
20190325004720 38 122 0.0 1.0 0.01 0.07 0.07 92 1020.5
20190325003107 38 23 1.0 4.0 0.03 0.07 0.07 92 1020.7
20190325001512 36 22 1.0 5.0 0.06 0.07 0.07 90 1020.9
20190325000114 36 320 3.0 6.0 0.07 0.07 0.07 90 1021.1
20190324234544 36 348 0.0 5.0 0.06 0.06 0.06 88 1021.0
20190324233137 38 249 3.0 9.0 0.04 0.04 0.04 78 1020.8
20190324231539 43 200 6.0 14.0 0.01 0.01 0.01 65 1020.1
20190324230120 45 329 3.0 5.0 0.00 0.00 0.00 55 1019.2
20190324224534 46 27 2.0 6.0 0.00 0.00 0.00 53 1018.6
20190324223142 46 40 1.0 9.0 0.00 0.00 0.00 50 1018.4
20190324221528 48 344 5.0 8.0 0.00 0.00 0.00 48 1018.1
20190324220134 49 332 5.0 9.0 0.00 0.00 0.00 46 1018.1
20190324213033 48 162 6.0 15.0 0.00 0.00 0.00 41 1017.6
20190324211709 51 304 1.0 9.0 0.00 0.00 0.00 36 1017.2
20190324210056 52 22 2.0 7.0 0.00 0.00 0.00 34 1017.0
20190324204711 53 278 2.0 11.0 0.00 0.00 0.00 31 1017.1
20190324203103 52 243 1.0 9.0 0.00 0.00 0.00 32 1017.3
20190324201623 51 209 5.0 10.0 0.00 0.00 0.00 31 1017.6
20190324200026 50 118 2.0 10.0 0.00 0.00 0.00 31 1017.8
20190324194621 50 25 4.0 9.0 0.00 0.05 0.00 31 1017.9
20190324193055 50 338 5.0 9.0 0.00 0.05 0.00 30 1018.2
20190324191716 51 49 3.0 11.0 0.00 0.05 0.00 33 1018.4
20190324190037 50 333 3.0 9.0 0.00 0.05 0.00 34 1018.6
20190324184717 50 343 2.0 9.0 0.00 0.15 0.00 32 1018.8
20190324183025 50 173 2.0 11.0 0.00 0.15 0.00 30 1018.8
20190324181631 50 22 2.0 6.0 0.00 0.15 0.00 31 1019.0
20190324180045 50 102 0.0 6.0 0.00 0.15 0.00 32 1019.2
20190324174504 49 12 3.0 9.0 0.00 0.28 0.00 31 1019.4
20190324173108 49 152 1.0 7.0 0.00 0.28 0.00 34 1019.7
20190324171512 48 176 6.0 11.0 0.00 0.28 0.00 35 1019.8
20190324170042 47 143 2.0 7.0 0.00 0.28 0.00 36 1020.0
20190324164831 46 314 2.0 7.0 0.00 0.39 0.00 35 1019.9
20190324163132 45 17 1.0 6.0 0.00 0.39 0.00 37 1020.0
20190324160052 45 20 2.0 5.0 0.00 0.39 0.00 41 1020.2
20190324154646 44 318 0.0 3.0 0.00 0.40 0.00 44 1020.4
20190324153118 43 127 0.0 0.0 0.00 0.40 0.00 49 1020.5
20190324151640 40 127 0.0 1.0 0.00 0.40 0.00 53 1020.5
20190324150119 36 126 1.0 2.0 0.00 0.40 0.00 54 1020.5
20190324144703 31 145 0.0 1.0 0.00 0.40 0.00 70 1020.4
20190324143026 28 195 0.0 1.0 0.00 0.40 0.00 75 1020.3
20190324141706 28 195 0.0 1.0 0.00 0.40 0.00 76 1020.0
20190324140046 25 204 0.0 1.0 0.00 0.40 0.00 78 1019.8
20190324134627 26 50 1.0 3.0 0.00 0.40 0.00 79 1019.7
20190324133018 25 149 0.0 1.0 0.00 0.40 0.00 82 1019.5
20190324131651 24 149 0.0 0.0 0.00 0.40 0.00 82 1019.4
20190324130103 24 149 0.0 0.0 0.00 0.40 0.00 82 1019.1
20190324124615 24 149 0.0 0.0 0.00 0.40 0.00 81 1019.0
20190324123020 25 149 0.0 1.0 0.00 0.40 0.00 80 1018.8
20190324121634 26 287 0.0 1.0 0.00 0.40 0.00 79 1018.6
20190324120034 26 158 0.0 1.0 0.00 0.40 0.00 78 1018.5
20190324114631 27 201 0.0 1.0 0.00 0.40 0.00 77 1018.5
20190324113027 28 248 0.0 3.0 0.00 0.40 0.00 76 1018.4
20190324111604 27 233 0.0 2.0 0.00 0.40 0.00 78 1018.2
20190324110002 27 316 1.0 4.0 0.00 0.40 0.00 81 1017.9
20190324104616 26 246 0.0 1.0 0.00 0.40 0.00 80 1017.9
20190324103031 26 246 0.0 1.0 0.00 0.40 0.00 78 1017.7
20190324101629 27 156 0.0 2.0 0.00 0.40 0.00 76 1017.6
20190324100027 29 193 0.0 2.0 0.00 0.40 0.00 72 1017.7
20190324094637 32 136 2.0 5.0 0.00 0.40 0.00 64 1017.4